createdAt,value
2023-04-03T00:00:34.258Z,35.78
2023-04-03T00:01:40.761Z,38.83
2023-04-03T00:02:47.960Z,37.58
2023-04-03T00:03:55.222Z,39.97
2023-04-03T00:05:02.115Z,33.28
2023-04-03T00:06:09.255Z,33.75
2023-04-03T00:07:17.253Z,34.40
2023-04-03T00:08:23.056Z,36.75
2023-04-03T00:09:29.853Z,34.65
2023-04-03T00:10:35.502Z,33.92
2023-04-03T00:11:42.461Z,36.15
2023-04-03T00:12:47.924Z,34.72
2023-04-03T00:13:54.942Z,34.30
2023-04-03T00:15:00.349Z,39.57
2023-04-03T00:16:07.508Z,34.90
2023-04-03T00:17:12.936Z,35.05
2023-04-03T00:18:19.870Z,34.05
2023-04-03T00:19:27.018Z,36.08
2023-04-03T00:20:33.785Z,36.13
2023-04-03T00:21:39.164Z,36.80
2023-04-03T00:22:45.968Z,32.25
2023-04-03T00:23:51.443Z,32.58
2023-04-03T00:24:58.223Z,33.67
2023-04-03T00:26:03.565Z,32.83
2023-04-03T00:27:10.368Z,33.00
2023-04-03T00:28:15.733Z,32.60
2023-04-03T00:29:22.629Z,32.13
2023-04-03T00:30:28.403Z,31.20
2023-04-03T00:31:35.302Z,33.05
2023-04-03T00:32:40.718Z,33.30
2023-04-03T00:33:47.575Z,30.77
2023-04-03T00:34:54.882Z,30.48
2023-04-03T00:36:01.645Z,31.67
2023-04-03T00:37:07.242Z,33.73
2023-04-03T00:38:14.237Z,30.27
2023-04-03T00:39:19.654Z,31.33
2023-04-03T00:40:27.932Z,31.52
2023-04-03T00:41:34.455Z,31.67
2023-04-03T00:42:41.673Z,33.08
2023-04-03T00:43:47.420Z,32.45
2023-04-03T00:45:28.637Z,30.95
2023-04-03T00:46:35.252Z,31.70
2023-04-03T00:47:40.667Z,33.15
2023-04-03T00:48:48.628Z,31.50
2023-04-03T00:49:56.215Z,32.90
2023-04-03T00:51:03.732Z,30.48
2023-04-03T00:52:10.072Z,32.85
2023-04-03T00:53:19.091Z,31.92
2023-04-03T00:54:24.336Z,29.63
2023-04-03T00:55:30.978Z,28.77
2023-04-03T00:56:36.513Z,32.95
2023-04-03T00:57:43.377Z,31.50
2023-04-03T00:58:53.829Z,33.38
2023-04-03T01:00:03.057Z,30.57
2023-04-03T01:01:13.032Z,34.20
2023-04-03T01:02:18.352Z,31.35
2023-04-03T01:03:24.956Z,32.60
2023-04-03T01:04:34.472Z,31.45
2023-04-03T01:05:43.111Z,31.50
2023-04-03T01:06:48.374Z,35.03
2023-04-03T01:07:56.667Z,35.10
2023-04-03T01:09:03.421Z,29.88
2023-04-03T01:10:10.808Z,31.77
2023-04-03T01:11:17.559Z,31.67
2023-04-03T01:12:24.333Z,32.22
2023-04-03T01:13:33.086Z,31.60
2023-04-03T01:14:38.395Z,33.60
2023-04-03T01:15:45.072Z,32.70
2023-04-03T01:16:56.668Z,30.55
2023-04-03T01:18:03.689Z,28.73
2023-04-03T01:19:13.730Z,35.97
2023-04-03T01:21:01.255Z,32.97
2023-04-03T01:22:19.461Z,32.20
2023-04-03T01:23:32.339Z,31.00
2023-04-03T01:24:41.493Z,35.53
2023-04-03T01:25:47.986Z,34.75
2023-04-03T01:26:54.664Z,30.77
2023-04-03T01:27:59.958Z,31.17
2023-04-03T01:29:06.972Z,31.73
2023-04-03T01:30:13.437Z,30.60
2023-04-03T01:31:24.984Z,34.22
2023-04-03T01:32:33.361Z,33.53
2023-04-03T01:33:39.341Z,31.60
2023-04-03T01:34:46.019Z,35.53
2023-04-03T01:35:51.290Z,33.15
2023-04-03T01:36:58.051Z,33.13
2023-04-03T01:38:03.385Z,33.08
2023-04-03T01:39:10.034Z,33.33
2023-04-03T01:40:16.993Z,35.90
2023-04-03T01:41:23.997Z,31.52
2023-04-03T01:42:30.747Z,31.50
2023-04-03T01:43:36.104Z,30.50
2023-04-03T01:44:42.816Z,30.92
2023-04-03T01:45:49.011Z,32.23
2023-04-03T01:46:55.776Z,32.70
2023-04-03T01:48:02.934Z,32.90
2023-04-03T01:49:09.765Z,31.02
2023-04-03T01:50:15.117Z,35.55
2023-04-03T01:51:22.218Z,30.98
2023-04-03T01:52:27.573Z,31.33
2023-04-03T01:53:34.339Z,30.55
2023-04-03T01:54:39.731Z,31.45
2023-04-03T01:55:46.436Z,31.42
2023-04-03T01:56:51.983Z,29.87
2023-04-03T01:57:58.709Z,34.08
2023-04-03T01:59:04.023Z,31.25
2023-04-03T02:00:11.993Z,31.50
2023-04-03T02:01:17.750Z,29.52
2023-04-03T02:02:24.551Z,31.70
2023-04-03T02:03:31.625Z,30.75
2023-04-03T02:04:38.420Z,30.70
2023-04-03T02:05:43.755Z,36.92
2023-04-03T02:06:50.359Z,31.48
2023-04-03T02:07:55.844Z,32.00
2023-04-03T02:09:02.573Z,29.42
2023-04-03T02:10:08.673Z,30.27
2023-04-03T02:11:15.704Z,34.05
2023-04-03T02:12:21.087Z,31.90
2023-04-03T02:13:27.872Z,33.75
2023-04-03T02:14:33.274Z,31.20
2023-04-03T02:15:42.597Z,30.50
2023-04-03T02:16:48.049Z,29.63
2023-04-03T02:17:54.924Z,31.85
2023-04-03T02:19:02.081Z,28.67
2023-04-03T02:20:09.362Z,29.45
2023-04-03T02:21:14.732Z,30.17
2023-04-03T02:22:21.734Z,28.40
2023-04-03T02:23:27.211Z,29.20
2023-04-03T02:24:34.035Z,29.45
2023-04-03T02:25:39.496Z,34.28
2023-04-03T02:26:46.415Z,32.88
2023-04-03T02:27:51.838Z,32.25
2023-04-03T02:28:58.656Z,28.42
2023-04-03T02:30:03.975Z,31.70
2023-04-03T02:31:11.235Z,28.70
2023-04-03T02:32:16.664Z,29.10
2023-04-03T02:33:23.360Z,30.90
2023-04-03T02:34:30.520Z,32.00
2023-04-03T02:35:37.295Z,31.90
2023-04-03T02:36:42.708Z,29.55
2023-04-03T02:37:49.391Z,29.00
2023-04-03T02:38:54.770Z,31.40
2023-04-03T02:40:01.537Z,28.55
2023-04-03T02:41:10.798Z,28.47
2023-04-03T02:42:16.260Z,30.33
2023-04-03T02:43:23.151Z,28.90
2023-04-03T02:44:28.536Z,29.50
2023-04-03T02:45:35.271Z,29.42
2023-04-03T02:46:40.846Z,28.52
2023-04-03T02:47:47.573Z,29.73
2023-04-03T02:48:53.069Z,29.55
2023-04-03T02:50:01.565Z,30.05
2023-04-03T02:51:07.566Z,27.13
2023-04-03T02:52:14.393Z,29.80
2023-04-03T02:53:19.775Z,28.10
2023-04-03T02:54:30.197Z,29.90
2023-04-03T02:55:35.539Z,30.00
2023-04-03T02:56:42.338Z,28.75
2023-04-03T02:57:47.661Z,27.15
2023-04-03T02:58:54.336Z,26.92
2023-04-03T02:59:59.710Z,28.38
2023-04-03T03:01:06.587Z,28.15
2023-04-03T03:02:12.306Z,28.13
2023-04-03T03:03:19.002Z,29.17
2023-04-03T03:04:27.384Z,28.52
2023-04-03T03:05:35.833Z,28.95
2023-04-03T03:06:42.371Z,28.73
2023-04-03T03:07:50.648Z,28.75
2023-04-03T03:08:56.224Z,28.88
2023-04-03T03:10:02.911Z,28.33
2023-04-03T03:11:08.788Z,29.52
2023-04-03T03:12:15.416Z,27.15
2023-04-03T03:13:20.834Z,26.83
2023-04-03T03:14:27.569Z,30.80
2023-04-03T03:15:32.938Z,27.52
2023-04-03T03:16:39.604Z,27.90
2023-04-03T03:17:45.262Z,27.95
2023-04-03T03:18:52.035Z,29.63
2023-04-03T03:19:57.482Z,31.67
2023-04-03T03:21:06.753Z,28.13
2023-04-03T03:22:12.108Z,26.38
2023-04-03T03:23:18.849Z,26.50
2023-04-03T03:24:24.341Z,25.20
2023-04-03T03:25:31.036Z,25.57
2023-04-03T03:26:36.362Z,28.60
2023-04-03T03:27:43.063Z,27.00
2023-04-03T03:28:48.876Z,25.70
2023-04-03T03:29:55.654Z,29.15
2023-04-03T03:31:01.069Z,27.38
2023-04-03T03:32:08.274Z,27.80
2023-04-03T03:33:13.590Z,28.52
2023-04-03T03:34:20.345Z,26.92
2023-04-03T03:35:25.807Z,27.98
2023-04-03T03:36:34.248Z,26.40
2023-04-03T03:37:40.976Z,27.77
2023-04-03T03:38:46.488Z,26.48
2023-04-03T03:39:53.959Z,27.70
2023-04-03T03:40:59.301Z,25.65
2023-04-03T03:42:06.022Z,30.00
2023-04-03T03:43:11.362Z,26.95
2023-04-03T03:44:18.061Z,28.00
2023-04-03T03:45:23.494Z,28.42
2023-04-03T03:46:30.251Z,28.55
2023-04-03T03:47:35.691Z,27.53
2023-04-03T03:48:42.367Z,25.63
2023-04-03T03:49:49.026Z,27.50
2023-04-03T03:50:54.481Z,28.67
2023-04-03T03:52:02.865Z,27.27
2023-04-03T03:53:08.251Z,28.60
2023-04-03T03:54:15.190Z,27.80
2023-04-03T03:55:20.796Z,26.42
2023-04-03T03:56:27.909Z,27.25
2023-04-03T03:57:33.282Z,29.30
2023-04-03T03:58:40.180Z,27.47
2023-04-03T03:59:46.726Z,28.97
2023-04-03T04:00:53.446Z,29.05
2023-04-03T04:01:58.962Z,30.98
2023-04-03T04:03:05.725Z,30.27
2023-04-03T04:04:12.634Z,28.17
2023-04-03T04:05:18.100Z,28.38
2023-04-03T04:06:25.103Z,34.38
2023-04-03T04:07:32.329Z,27.33
2023-04-03T04:08:39.119Z,31.63
2023-04-03T04:09:44.485Z,28.80
2023-04-03T04:10:51.186Z,26.83
2023-04-03T04:11:56.566Z,28.98
2023-04-03T04:13:03.287Z,29.27
2023-04-03T04:14:09.114Z,27.92
2023-04-03T04:15:16.072Z,28.15
2023-04-03T04:16:21.452Z,29.10
2023-04-03T04:17:28.187Z,26.67
2023-04-03T04:18:33.638Z,27.50
2023-04-03T04:19:40.599Z,30.25
2023-04-03T04:20:45.954Z,29.53
2023-04-03T04:21:52.715Z,29.00
2023-04-03T04:22:59.803Z,29.00
2023-04-03T04:24:06.663Z,26.60
2023-04-03T04:25:12.591Z,28.45
2023-04-03T04:26:19.374Z,28.80
2023-04-03T04:27:24.714Z,26.50
2023-04-03T04:28:31.840Z,27.30
2023-04-03T04:29:38.999Z,29.33
2023-04-03T04:30:45.883Z,26.98
2023-04-03T04:31:52.611Z,29.23
2023-04-03T04:32:58.022Z,26.63
2023-04-03T04:34:04.741Z,28.80
2023-04-03T04:35:10.757Z,28.67
2023-04-03T04:36:17.736Z,28.02
2023-04-03T04:37:23.150Z,27.58
2023-04-03T04:38:31.583Z,27.55
2023-04-03T04:39:37.329Z,28.58
2023-04-03T04:40:45.151Z,26.35
2023-04-03T04:41:50.966Z,26.52
2023-04-03T04:42:57.658Z,25.30
2023-04-03T04:44:02.984Z,27.83
2023-04-03T04:45:10.305Z,26.73
2023-04-03T04:46:16.994Z,27.67
2023-04-03T04:47:22.350Z,26.90
2023-04-03T04:48:30.694Z,25.52
2023-04-03T04:49:37.405Z,31.02
2023-04-03T04:50:44.070Z,26.48
2023-04-03T04:51:52.282Z,25.75
2023-04-03T04:52:57.816Z,27.58
2023-04-03T04:54:06.171Z,27.13
2023-04-03T04:55:11.866Z,24.70
2023-04-03T04:56:18.511Z,26.95
2023-04-03T04:57:23.865Z,26.70
2023-04-03T04:58:30.458Z,23.67
2023-04-03T04:59:35.757Z,24.60
2023-04-03T05:00:42.386Z,25.42
2023-04-03T05:01:47.669Z,26.33
2023-04-03T05:02:54.366Z,24.52
2023-04-03T05:03:59.672Z,25.77
2023-04-03T05:05:06.481Z,24.40
2023-04-03T05:06:11.847Z,26.17
2023-04-03T05:07:18.474Z,26.17
2023-04-03T05:08:23.803Z,24.98
2023-04-03T05:09:32.251Z,24.13
2023-04-03T05:10:37.626Z,25.63
2023-04-03T05:11:44.276Z,22.70
2023-04-03T05:12:49.683Z,24.23
2023-04-03T05:13:56.304Z,23.80
2023-04-03T05:15:01.650Z,23.88
2023-04-03T05:16:08.881Z,23.47
2023-04-03T05:17:14.168Z,23.93
2023-04-03T05:18:20.758Z,23.23
2023-04-03T05:19:26.094Z,24.50
2023-04-03T05:20:32.687Z,25.10
2023-04-03T05:21:38.298Z,22.73
2023-04-03T05:22:44.890Z,24.23
2023-04-03T05:23:50.193Z,22.92
2023-04-03T05:24:58.462Z,23.02
2023-04-03T05:26:03.728Z,23.77
2023-04-03T05:27:10.388Z,24.93
2023-04-03T05:28:17.181Z,25.40
2023-04-03T05:29:22.472Z,23.88
2023-04-03T05:30:29.352Z,24.92
2023-04-03T05:31:34.733Z,23.63
2023-04-03T05:32:41.632Z,23.48
2023-04-03T05:33:46.937Z,24.23
2023-04-03T05:34:54.179Z,25.75
2023-04-03T05:35:59.517Z,24.98
2023-04-03T05:37:07.528Z,24.77
2023-04-03T05:38:12.956Z,22.70
2023-04-03T05:39:19.823Z,24.10
2023-04-03T05:40:28.327Z,24.38
2023-04-03T05:41:35.087Z,26.23
2023-04-03T05:42:40.476Z,22.58
2023-04-03T05:43:47.165Z,22.92
2023-04-03T05:44:52.674Z,22.10
2023-04-03T05:45:59.487Z,22.10
2023-04-03T05:47:04.982Z,23.33
2023-04-03T05:48:11.716Z,21.48
2023-04-03T05:49:17.165Z,22.83
2023-04-03T05:50:23.917Z,21.90
2023-04-03T05:51:32.917Z,23.08
2023-04-03T05:52:40.548Z,23.95
2023-04-03T05:53:48.906Z,21.35
2023-04-03T05:54:54.322Z,21.10
2023-04-03T05:56:02.788Z,22.00
2023-04-03T05:57:09.634Z,21.75
2023-04-03T05:58:14.976Z,21.85
2023-04-03T05:59:21.686Z,21.70
2023-04-03T06:00:27.251Z,20.33
2023-04-03T06:01:33.977Z,22.73
2023-04-03T06:02:39.601Z,20.50
2023-04-03T06:03:46.519Z,20.42
2023-04-03T06:04:52.268Z,20.48
2023-04-03T06:05:59.060Z,20.80
2023-04-03T06:07:05.725Z,20.92
2023-04-03T06:08:11.645Z,21.00
2023-04-03T06:09:18.685Z,21.17
2023-04-03T06:10:25.545Z,22.75
2023-04-03T06:11:32.802Z,21.07
2023-04-03T06:12:39.559Z,21.93
2023-04-03T06:13:46.388Z,22.05
2023-04-03T06:14:53.589Z,20.77
2023-04-03T06:15:59.591Z,21.52
2023-04-03T06:17:06.742Z,21.50
2023-04-03T06:18:13.932Z,22.45
2023-04-03T06:19:19.800Z,20.50
2023-04-03T06:20:26.596Z,21.48
2023-04-03T06:21:31.952Z,22.25
2023-04-03T06:22:38.808Z,21.27
2023-04-03T06:23:44.369Z,21.20
2023-04-03T06:24:51.151Z,21.98
2023-04-03T06:25:57.895Z,21.15
2023-04-03T06:27:05.083Z,22.27
2023-04-03T06:28:12.899Z,21.65
2023-04-03T06:29:18.336Z,19.73
2023-04-03T06:30:25.226Z,20.98
2023-04-03T06:31:30.697Z,21.35
2023-04-03T06:32:37.522Z,21.20
2023-04-03T06:33:42.933Z,22.77
2023-04-03T06:34:49.668Z,22.77
2023-04-03T06:36:02.234Z,23.20
2023-04-03T06:37:07.676Z,21.95
2023-04-03T06:38:14.488Z,22.58
2023-04-03T06:39:22.874Z,23.35
2023-04-03T06:40:30.511Z,22.98
2023-04-03T06:41:37.389Z,22.25
2023-04-03T06:42:45.841Z,22.20
2023-04-03T06:43:51.177Z,21.65
2023-04-03T06:44:57.852Z,22.23
2023-04-03T06:46:03.266Z,22.70
2023-04-03T06:47:11.135Z,23.55
2023-04-03T06:48:16.462Z,23.58
2023-04-03T06:49:25.787Z,20.25
2023-04-03T06:50:32.462Z,20.75
2023-04-03T06:51:38.196Z,20.77
2023-04-03T06:52:45.123Z,21.05
2023-04-03T06:53:52.152Z,21.25
2023-04-03T06:55:00.154Z,21.88
2023-04-03T06:56:05.571Z,21.20
2023-04-03T06:57:12.351Z,20.47
2023-04-03T06:58:23.256Z,21.30
2023-04-03T06:59:30.267Z,20.70
2023-04-03T07:00:37.066Z,21.35
2023-04-03T07:01:43.217Z,20.42
2023-04-03T07:02:49.957Z,20.38
2023-04-03T07:03:56.766Z,21.10
2023-04-03T07:05:03.492Z,21.20
2023-04-03T07:06:10.668Z,21.67
2023-04-03T07:07:17.410Z,18.57
2023-04-03T07:08:25.724Z,19.33
2023-04-03T07:09:32.720Z,19.92
2023-04-03T07:10:39.385Z,19.23
2023-04-03T07:11:46.112Z,18.67
2023-04-03T07:12:52.797Z,19.45
2023-04-03T07:14:01.223Z,19.83
2023-04-03T07:15:08.578Z,20.52
2023-04-03T07:16:15.370Z,19.85
2023-04-03T07:17:22.561Z,19.48
2023-04-03T07:18:29.459Z,19.87
2023-04-03T07:19:36.268Z,19.93
2023-04-03T07:20:44.042Z,19.25
2023-04-03T07:21:50.721Z,19.92
2023-04-03T07:22:56.122Z,18.90
2023-04-03T07:24:03.141Z,19.73
2023-04-03T07:25:09.863Z,20.50
2023-04-03T07:26:16.599Z,18.15
2023-04-03T07:27:22.086Z,18.77
2023-04-03T07:28:28.986Z,18.55
2023-04-03T07:29:37.374Z,19.50
2023-04-03T07:30:48.571Z,18.87
2023-04-03T07:31:55.362Z,17.95
2023-04-03T07:33:00.840Z,18.27
2023-04-03T07:34:07.872Z,17.58
2023-04-03T07:35:14.825Z,18.20
2023-04-03T07:36:23.548Z,17.83
2023-04-03T07:37:30.777Z,19.48
2023-04-03T07:38:37.849Z,17.50
2023-04-03T07:39:44.729Z,17.40
2023-04-03T07:40:52.420Z,17.97
2023-04-03T07:42:00.396Z,22.17
2023-04-03T07:43:07.102Z,18.38
2023-04-03T07:44:14.109Z,19.40
2023-04-03T07:45:21.750Z,19.23
2023-04-03T07:46:28.644Z,18.73
2023-04-03T07:47:35.588Z,18.27
2023-04-03T07:48:41.200Z,18.38
2023-04-03T07:49:47.975Z,17.73
2023-04-03T07:50:53.408Z,17.70
2023-04-03T07:52:00.136Z,18.37
2023-04-03T07:53:07.253Z,17.37
2023-04-03T07:54:14.148Z,16.98
2023-04-03T07:55:21.006Z,16.65
2023-04-03T07:56:27.756Z,16.50
2023-04-03T07:57:34.481Z,16.85
2023-04-03T07:58:41.318Z,15.80
2023-04-03T07:59:50.169Z,17.05
2023-04-03T08:01:32.035Z,15.98
2023-04-03T08:02:39.127Z,16.67
2023-04-03T08:03:44.661Z,16.00
2023-04-03T08:04:51.794Z,16.07
2023-04-03T08:05:58.732Z,15.18
2023-04-03T08:07:05.454Z,17.30
2023-04-03T08:08:12.627Z,18.60
2023-04-03T08:09:19.573Z,17.75
2023-04-03T08:10:25.014Z,19.63
2023-04-03T08:11:31.688Z,18.95
2023-04-03T08:12:39.372Z,15.82
2023-04-03T08:13:46.088Z,16.65
2023-04-03T08:14:52.806Z,17.15
2023-04-03T08:15:59.682Z,17.00
2023-04-03T08:17:11.970Z,16.42
2023-04-03T08:18:18.942Z,15.70
2023-04-03T08:19:26.824Z,15.38
2023-04-03T08:20:33.865Z,17.02
2023-04-03T08:21:40.582Z,15.35
2023-04-03T08:22:47.363Z,15.75
2023-04-03T08:23:54.685Z,18.45
2023-04-03T08:25:01.467Z,16.35
2023-04-03T08:26:12.864Z,15.10
2023-04-03T08:27:19.720Z,15.90
2023-04-03T08:28:26.448Z,14.82
2023-04-03T08:29:33.707Z,15.38
2023-04-03T08:30:41.933Z,14.98
2023-04-03T08:31:48.809Z,15.00
2023-04-03T08:32:57.557Z,15.00
2023-04-03T08:34:04.261Z,15.13
2023-04-03T08:35:11.428Z,16.05
2023-04-03T08:36:24.302Z,14.60
2023-04-03T08:37:30.996Z,15.77
2023-04-03T08:38:39.382Z,15.03
2023-04-03T08:39:44.843Z,15.85
2023-04-03T08:40:52.283Z,14.70
2023-04-03T08:42:01.244Z,15.88
2023-04-03T08:43:28.189Z,16.10
2023-04-03T08:44:43.757Z,15.02
2023-04-03T08:45:52.770Z,15.18
2023-04-03T08:47:17.456Z,16.45
2023-04-03T08:48:30.459Z,15.43
2023-04-03T08:49:37.281Z,16.00
2023-04-03T08:50:45.368Z,17.63
2023-04-03T08:51:53.242Z,16.85
2023-04-03T08:53:02.286Z,16.30
2023-04-03T08:54:11.784Z,16.50
2023-04-03T08:55:27.404Z,15.80
2023-04-03T08:56:35.470Z,14.70
2023-04-03T08:57:44.555Z,14.43
2023-04-03T08:58:55.311Z,15.35
2023-04-03T09:00:03.163Z,13.95
2023-04-03T09:01:11.328Z,13.82
2023-04-03T09:02:29.500Z,16.30
2023-04-03T09:03:46.796Z,14.90
2023-04-03T09:04:53.486Z,14.52
2023-04-03T09:06:02.065Z,13.55
2023-04-03T09:07:13.454Z,16.00
2023-04-03T09:08:28.497Z,13.70
2023-04-03T09:09:36.192Z,15.68
2023-04-03T09:10:44.097Z,14.48
2023-04-03T09:11:56.443Z,14.80
2023-04-03T09:13:07.621Z,14.68
2023-04-03T09:14:19.891Z,16.77
2023-04-03T09:15:37.842Z,15.73
2023-04-03T09:16:53.104Z,13.98
2023-04-03T09:18:05.538Z,16.33
2023-04-03T09:19:20.133Z,14.35
2023-04-03T09:20:30.705Z,16.45
2023-04-03T09:21:41.622Z,15.80
2023-04-03T09:22:52.048Z,13.77
2023-04-03T09:24:00.655Z,14.55
2023-04-03T09:25:16.482Z,14.90
2023-04-03T09:26:27.148Z,14.23
2023-04-03T09:27:33.790Z,14.27
2023-04-03T09:28:50.388Z,17.23
2023-04-03T09:29:59.527Z,13.30
2023-04-03T09:31:06.169Z,13.68
2023-04-03T09:32:24.485Z,14.40
2023-04-03T09:33:31.326Z,14.25
2023-04-03T09:34:41.645Z,13.48
2023-04-03T09:35:49.041Z,12.43
2023-04-03T09:36:57.061Z,13.88
2023-04-03T09:38:04.784Z,14.70
2023-04-03T09:39:16.989Z,12.70
2023-04-03T09:40:38.280Z,13.20
2023-04-03T09:41:45.208Z,19.10
2023-04-03T09:42:55.482Z,14.43
2023-04-03T09:44:07.642Z,14.98
2023-04-03T09:45:28.025Z,14.00
2023-04-03T09:46:36.672Z,13.32
2023-04-03T09:47:44.346Z,14.70
2023-04-03T09:49:07.461Z,15.00
2023-04-03T09:50:25.966Z,13.70
2023-04-03T09:51:33.615Z,12.65
2023-04-03T09:52:40.702Z,15.15
2023-04-03T09:53:48.579Z,14.60
2023-04-03T09:54:55.296Z,15.10
2023-04-03T09:56:01.010Z,14.45
2023-04-03T09:57:11.588Z,13.18
2023-04-03T09:58:42.583Z,12.63
2023-04-03T10:00:03.619Z,12.00
2023-04-03T10:01:10.497Z,13.02
2023-04-03T10:02:37.667Z,12.97
2023-04-03T10:03:48.977Z,12.40
2023-04-03T10:05:08.392Z,12.23
2023-04-03T10:06:27.595Z,13.23
2023-04-03T10:07:37.668Z,13.52
2023-04-03T10:08:44.511Z,13.43
2023-04-03T10:10:00.511Z,12.00
2023-04-03T10:11:19.260Z,15.32
2023-04-03T10:12:25.591Z,12.38
2023-04-03T10:13:32.432Z,15.10
2023-04-03T10:14:42.578Z,16.37
2023-04-03T10:15:48.941Z,14.93
2023-04-03T10:17:01.489Z,12.40
2023-04-03T10:18:23.733Z,15.90
2023-04-03T10:19:41.570Z,11.68
2023-04-03T10:20:50.415Z,15.98
2023-04-03T10:22:03.004Z,14.30
2023-04-03T10:23:22.975Z,15.32
2023-04-03T10:24:34.385Z,15.52
2023-04-03T10:25:46.570Z,18.67
2023-04-03T10:26:57.637Z,18.40
2023-04-03T10:28:05.431Z,22.70
2023-04-03T10:29:21.423Z,25.08
2023-04-03T10:30:39.994Z,29.48
2023-04-03T10:31:50.909Z,37.30
2023-04-03T10:33:05.963Z,28.98
2023-04-03T10:34:18.714Z,29.40
2023-04-03T10:35:36.200Z,31.77
2023-04-03T10:36:47.598Z,30.58
2023-04-03T10:38:06.025Z,25.63
2023-04-03T10:39:20.445Z,28.33
2023-04-03T10:40:35.652Z,21.17
2023-04-03T10:41:54.177Z,18.40
2023-04-03T10:43:10.748Z,19.30
2023-04-03T10:44:29.210Z,19.83
2023-04-03T10:45:39.618Z,19.50
2023-04-03T10:46:48.507Z,20.27
2023-04-03T10:48:02.920Z,18.48
2023-04-03T10:49:22.255Z,16.17
2023-04-03T10:50:33.218Z,13.93
2023-04-03T10:51:44.006Z,17.23
2023-04-03T10:52:54.999Z,15.75
2023-04-03T10:54:08.216Z,17.70
2023-04-03T10:55:27.103Z,17.15
2023-04-03T10:56:40.733Z,21.67
2023-04-03T10:57:47.700Z,19.10
2023-04-03T10:58:57.017Z,20.73
2023-04-03T11:00:06.945Z,19.90
2023-04-03T11:01:15.558Z,22.38
2023-04-03T11:02:29.338Z,28.73
2023-04-03T11:03:43.202Z,22.33
2023-04-03T11:04:54.739Z,22.58
2023-04-03T11:06:02.171Z,27.80
2023-04-03T11:07:15.399Z,23.60
2023-04-03T11:08:29.499Z,31.02
2023-04-03T11:09:42.068Z,27.40
2023-04-03T11:10:50.551Z,28.50
2023-04-03T11:12:00.192Z,35.13
2023-04-03T11:13:12.964Z,31.10
2023-04-03T11:14:25.354Z,28.70
2023-04-03T11:15:34.058Z,33.77
2023-04-03T11:16:53.411Z,32.58
2023-04-03T11:18:04.645Z,32.95
2023-04-03T11:19:18.600Z,28.77
2023-04-03T11:20:30.034Z,28.38
2023-04-03T11:21:41.133Z,26.40
2023-04-03T11:22:47.787Z,30.35
2023-04-03T11:23:55.191Z,30.67
2023-04-03T11:25:09.589Z,26.55
2023-04-03T11:26:17.658Z,27.60
2023-04-03T11:27:28.369Z,29.83
2023-04-03T11:28:35.143Z,29.67
2023-04-03T11:29:42.931Z,29.98
2023-04-03T11:30:57.585Z,29.83
2023-04-03T11:32:13.944Z,28.77
2023-04-03T11:33:33.413Z,32.45
2023-04-03T11:34:42.867Z,28.33
2023-04-03T11:35:50.962Z,28.38
2023-04-03T11:36:59.752Z,30.23
2023-04-03T11:38:08.184Z,31.73
2023-04-03T11:39:24.072Z,32.27
2023-04-03T11:40:34.888Z,30.10
2023-04-03T11:41:42.494Z,33.08
2023-04-03T11:42:52.045Z,30.35
2023-04-03T11:44:04.122Z,28.80
2023-04-03T11:45:46.292Z,30.52
2023-04-03T11:46:58.052Z,30.50
2023-04-03T11:48:25.761Z,30.77
2023-04-03T11:50:03.625Z,31.48
2023-04-03T11:51:44.500Z,32.20
2023-04-03T11:53:05.284Z,29.73
2023-04-03T11:54:48.416Z,32.15
2023-04-03T11:56:01.665Z,30.05
2023-04-03T11:57:42.177Z,29.25
2023-04-03T11:59:26.416Z,29.50
2023-04-03T12:01:23.013Z,30.35
2023-04-03T12:02:53.708Z,28.02
2023-04-03T12:04:10.086Z,31.55
2023-04-03T12:05:33.864Z,30.63
2023-04-03T12:07:13.234Z,29.33
2023-04-03T12:08:29.829Z,28.93
2023-04-03T12:10:32.387Z,30.92
2023-04-03T12:11:40.460Z,31.25
2023-04-03T12:12:47.219Z,29.98
2023-04-03T12:14:09.579Z,30.63
2023-04-03T12:15:55.409Z,29.42
2023-04-03T12:17:03.265Z,30.60
2023-04-03T12:18:50.704Z,32.65
2023-04-03T12:19:57.874Z,29.42
2023-04-03T12:21:03.969Z,31.70
2023-04-03T12:22:17.018Z,30.33
2023-04-03T12:23:36.475Z,31.50
2023-04-03T12:24:44.750Z,28.98
2023-04-03T12:25:54.249Z,29.00
2023-04-03T12:27:24.985Z,30.05
2023-04-03T12:28:30.903Z,32.95
2023-04-03T12:29:44.088Z,32.72
2023-04-03T12:30:52.071Z,34.17
2023-04-03T12:32:11.679Z,30.00
2023-04-03T12:33:28.638Z,30.73
2023-04-03T12:34:53.882Z,30.83
2023-04-03T12:36:10.316Z,28.85
2023-04-03T12:37:29.221Z,31.48
2023-04-03T12:39:09.083Z,31.60
2023-04-03T12:40:22.025Z,30.13
2023-04-03T12:41:35.890Z,30.02
2023-04-03T12:43:02.326Z,31.65
2023-04-03T12:44:45.045Z,29.77
2023-04-03T12:45:54.466Z,30.73
2023-04-03T12:47:05.561Z,34.20
2023-04-03T12:48:19.076Z,29.70
2023-04-03T12:49:38.769Z,29.60
2023-04-03T12:50:47.084Z,30.27
2023-04-03T12:51:52.659Z,31.67
2023-04-03T12:53:05.374Z,33.50
2023-04-03T12:54:19.912Z,32.40
2023-04-03T12:55:25.399Z,32.88
2023-04-03T12:56:33.652Z,34.13
2023-04-03T12:57:40.579Z,33.47
2023-04-03T12:58:49.036Z,33.23
2023-04-03T12:59:55.885Z,34.17
2023-04-03T13:01:08.896Z,31.73
2023-04-03T13:02:26.367Z,33.55
2023-04-03T13:03:33.852Z,35.75
2023-04-03T13:04:43.884Z,32.45
2023-04-03T13:05:50.811Z,33.55
2023-04-03T13:06:56.255Z,34.42
2023-04-03T13:08:05.673Z,36.83
2023-04-03T13:09:24.947Z,35.03
2023-04-03T13:10:30.421Z,38.60
2023-04-03T13:11:39.772Z,32.17
2023-04-03T13:12:51.551Z,33.13
2023-04-03T13:14:08.494Z,36.25
2023-04-03T13:15:21.438Z,36.58
2023-04-03T13:16:28.200Z,37.75
2023-04-03T13:17:35.034Z,35.28
2023-04-03T13:18:42.237Z,36.20
2023-04-03T13:19:48.406Z,35.88
2023-04-03T13:20:55.871Z,35.97
2023-04-03T13:22:06.052Z,34.70
2023-04-03T13:23:13.513Z,42.17
2023-04-03T13:24:18.975Z,35.67
2023-04-03T13:25:26.671Z,37.13
2023-04-03T13:26:36.414Z,38.47
2023-04-03T13:27:44.902Z,36.15
2023-04-03T13:28:53.809Z,34.80
2023-04-03T13:30:02.455Z,33.97
2023-04-03T13:31:12.888Z,34.70
2023-04-03T13:32:22.008Z,36.63
2023-04-03T13:33:30.968Z,36.80
2023-04-03T13:34:43.721Z,35.42
2023-04-03T13:35:50.732Z,34.58
2023-04-03T13:37:03.319Z,33.92
2023-04-03T13:38:23.573Z,34.38
2023-04-03T13:39:32.123Z,32.03
2023-04-03T13:40:47.229Z,34.95
2023-04-03T13:41:55.768Z,36.28
2023-04-03T13:43:06.434Z,34.13
2023-04-03T13:44:34.731Z,35.10
2023-04-03T13:45:43.476Z,37.10
2023-04-03T13:46:50.224Z,37.27
2023-04-03T13:47:58.804Z,34.95
2023-04-03T13:49:23.538Z,34.92
2023-04-03T13:50:31.640Z,35.88
2023-04-03T13:51:38.502Z,37.55
2023-04-03T13:52:47.352Z,33.28
2023-04-03T13:53:56.436Z,36.40
2023-04-03T13:55:05.834Z,35.30
2023-04-03T13:56:25.778Z,38.42
2023-04-03T13:57:31.635Z,35.53
2023-04-03T13:58:40.127Z,35.67
2023-04-03T13:59:47.326Z,34.25
2023-04-03T14:00:57.267Z,37.88
2023-04-03T14:02:20.766Z,34.25
2023-04-03T14:03:29.305Z,34.13
2023-04-03T14:04:37.174Z,35.22
2023-04-03T14:05:43.961Z,34.72
2023-04-03T14:06:49.718Z,35.67
2023-04-03T14:07:56.656Z,34.05
2023-04-03T14:09:03.384Z,33.67
2023-04-03T14:10:11.083Z,36.10
2023-04-03T14:11:19.961Z,35.67
2023-04-03T14:12:31.781Z,34.20
2023-04-03T14:13:37.838Z,33.78
2023-04-03T14:14:44.581Z,33.08
2023-04-03T14:15:53.985Z,35.25
2023-04-03T14:17:06.396Z,34.90
2023-04-03T14:18:15.100Z,36.10
2023-04-03T14:19:24.605Z,35.83
2023-04-03T14:20:32.037Z,33.10
2023-04-03T14:21:38.825Z,33.92
2023-04-03T14:22:46.104Z,35.28
2023-04-03T14:23:53.436Z,38.42
2023-04-03T14:24:59.879Z,36.03
2023-04-03T14:26:06.656Z,36.90
2023-04-03T14:27:20.696Z,36.65
2023-04-03T14:28:26.142Z,39.47
2023-04-03T14:29:32.978Z,36.75
2023-04-03T14:30:40.101Z,37.03
2023-04-03T14:31:46.431Z,38.97
2023-04-03T14:32:55.517Z,37.85
2023-04-03T14:34:00.962Z,36.67
2023-04-03T14:35:08.114Z,37.40
2023-04-03T14:36:17.649Z,39.47
2023-04-03T14:37:27.464Z,39.35
2023-04-03T14:38:35.268Z,39.22
2023-04-03T14:39:41.006Z,37.83
2023-04-03T14:40:47.856Z,39.78
2023-04-03T14:41:53.605Z,38.53
2023-04-03T14:43:00.752Z,39.47
2023-04-03T14:44:07.861Z,43.45
2023-04-03T14:45:15.573Z,41.20
2023-04-03T14:46:26.552Z,41.95
2023-04-03T14:47:35.948Z,44.05
2023-04-03T14:48:44.479Z,42.10
2023-04-03T14:49:49.926Z,44.33
2023-04-03T14:51:05.161Z,42.25
2023-04-03T14:52:23.260Z,45.47
2023-04-03T14:53:38.959Z,41.33